Time,TemperatureF,DewpointF,PressureIn,WindDirection,WindDirectionDegrees,WindSpeedMPH,WindSpeedGustMPH,Humidity,HourlyPrecipIn,Conditions,Clouds,dailyrainin,SoftwareType,DateUTC
2013-06-14 00:01:00,50.8,49.7,29.68,North,355,2.0,3.0,96,0.20,,,0.01,WeatherCatV1.02B3,2013-06-14 04:01:00,
2013-06-14 00:06:00,50.8,49.7,29.67,NE,43,0.0,3.0,96,0.17,,,0.02,WeatherCatV1.02B3,2013-06-14 04:06:00,
2013-06-14 00:11:00,50.8,49.7,29.68,North,11,1.0,6.0,96,0.10,,,0.03,WeatherCatV1.02B3,2013-06-14 04:11:00,
2013-06-14 00:16:00,50.6,49.5,29.68,NE,54,0.0,0.0,96,0.10,,,0.03,WeatherCatV1.02B3,2013-06-14 04:16:00,
2013-06-14 00:21:00,50.6,49.5,29.68,NE,48,0.0,2.0,96,0.10,,,0.04,WeatherCatV1.02B3,2013-06-14 04:21:00,
2013-06-14 00:26:00,50.6,49.5,29.68,NE,55,2.0,3.0,96,0.08,,,0.05,WeatherCatV1.02B3,2013-06-14 04:26:00,
2013-06-14 00:31:00,50.6,49.5,29.68,NNE,18,5.0,5.0,96,0.21,,,0.07,WeatherCatV1.02B3,2013-06-14 04:31:00,
2013-06-14 00:36:00,50.6,49.5,29.68,NNE,24,0.0,3.0,96,0.18,,,0.08,WeatherCatV1.02B3,2013-06-14 04:36:00,
2013-06-14 00:41:00,50.6,49.5,29.67,NNE,15,0.0,2.0,96,0.14,,,0.09,WeatherCatV1.02B3,2013-06-14 04:41:00,
2013-06-14 00:46:00,50.7,49.6,29.67,North,355,0.0,1.0,96,0.12,,,0.10,WeatherCatV1.02B3,2013-06-14 04:46:00,
2013-06-14 00:51:00,50.8,49.7,29.67,NE,40,0.0,2.0,96,0.08,,,0.11,WeatherCatV1.02B3,2013-06-14 04:51:00,
2013-06-14 00:56:00,50.8,49.7,29.67,North,355,0.0,0.0,96,0.15,,,0.12,WeatherCatV1.02B3,2013-06-14 04:56:00,
2013-06-14 01:01:00,50.9,49.8,29.67,NE,36,0.0,0.0,96,0.23,,,0.14,WeatherCatV1.02B3,2013-06-14 05:01:00,
2013-06-14 01:06:00,51.0,49.9,29.67,North,0,2.0,2.0,96,0.13,,,0.15,WeatherCatV1.02B3,2013-06-14 05:06:00,
2013-06-14 01:11:00,51.0,49.9,29.67,SE,130,0.0,4.0,96,0.15,,,0.16,WeatherCatV1.02B3,2013-06-14 05:11:00,
2013-06-14 01:16:00,51.0,49.9,29.66,NW,323,0.0,9.0,96,0.23,,,0.18,WeatherCatV1.02B3,2013-06-14 05:16:00,
2013-06-14 01:21:00,51.1,50.0,29.66,East,84,0.0,1.0,96,0.18,,,0.20,WeatherCatV1.02B3,2013-06-14 05:21:00,
2013-06-14 01:26:00,51.1,50.0,29.66,NNE,18,2.0,9.0,96,0.23,,,0.22,WeatherCatV1.02B3,2013-06-14 05:26:00,
2013-06-14 01:31:00,51.1,50.0,29.66,NW,313,0.0,7.0,96,0.17,,,0.23,WeatherCatV1.02B3,2013-06-14 05:31:00,
2013-06-14 01:36:00,51.1,50.0,29.66,NNE,26,0.0,1.0,96,0.17,,,0.25,WeatherCatV1.02B3,2013-06-14 05:36:00,
2013-06-14 01:41:00,51.2,50.1,29.65,NE,53,4.0,5.0,96,0.17,,,0.26,WeatherCatV1.02B3,2013-06-14 05:41:00,
2013-06-14 01:46:00,51.2,50.1,29.65,NE,36,2.0,3.0,96,0.17,,,0.28,WeatherCatV1.02B3,2013-06-14 05:46:00,
2013-06-14 01:51:00,51.2,50.1,29.65,ENE,69,0.0,0.0,96,0.28,,,0.30,WeatherCatV1.02B3,2013-06-14 05:51:00,
2013-06-14 01:56:00,51.2,50.1,29.65,ENE,60,0.0,0.0,96,0.25,,,0.32,WeatherCatV1.02B3,2013-06-14 05:56:00,
2013-06-14 02:01:00,51.2,50.1,29.66,NE,56,0.0,4.0,96,0.20,,,0.34,WeatherCatV1.02B3,2013-06-14 06:01:00,
2013-06-14 02:06:00,51.2,50.1,29.65,NNW,327,0.0,6.0,96,0.18,,,0.35,WeatherCatV1.02B3,2013-06-14 06:06:00,
2013-06-14 02:11:00,51.2,50.1,29.65,NE,42,3.0,3.0,96,0.17,,,0.37,WeatherCatV1.02B3,2013-06-14 06:11:00,
2013-06-14 02:16:00,51.2,50.1,29.65,NNW,330,0.0,5.0,96,0.16,,,0.38,WeatherCatV1.02B3,2013-06-14 06:16:00,
2013-06-14 02:21:00,51.0,49.9,29.66,NNE,21,1.0,4.0,96,0.16,,,0.39,WeatherCatV1.02B3,2013-06-14 06:21:00,
2013-06-14 02:26:00,50.8,49.7,29.66,ENE,67,2.0,4.0,96,0.13,,,0.40,WeatherCatV1.02B3,2013-06-14 06:26:00,
2013-06-14 02:31:00,50.7,49.6,29.65,East,97,1.0,10.0,96,0.11,,,0.41,WeatherCatV1.02B3,2013-06-14 06:31:00,
2013-06-14 02:36:00,50.6,49.5,29.65,NE,38,0.0,12.0,96,0.16,,,0.43,WeatherCatV1.02B3,2013-06-14 06:36:00,
2013-06-14 02:41:00,50.6,49.5,29.66,NNW,337,0.0,5.0,96,0.19,,,0.44,WeatherCatV1.02B3,2013-06-14 06:41:00,
2013-06-14 02:46:00,50.7,49.6,29.66,West,281,3.0,3.0,96,0.18,,,0.46,WeatherCatV1.02B3,2013-06-14 06:46:00,
2013-06-14 02:51:00,50.8,49.7,29.66,NNE,23,2.0,6.0,96,0.12,,,0.47,WeatherCatV1.02B3,2013-06-14 06:51:00,
2013-06-14 02:56:00,50.8,49.7,29.67,ESE,117,0.0,6.0,96,0.16,,,0.48,WeatherCatV1.02B3,2013-06-14 06:56:00,
2013-06-14 03:01:00,50.8,49.7,29.66,NNE,33,0.0,5.0,96,0.21,,,0.50,WeatherCatV1.02B3,2013-06-14 07:01:00,
2013-06-14 03:06:00,50.9,49.8,29.67,North,355,4.0,5.0,96,0.20,,,0.51,WeatherCatV1.02B3,2013-06-14 07:06:00,
2013-06-14 03:11:00,50.9,49.8,29.67,NNW,343,0.0,0.0,96,0.15,,,0.52,WeatherCatV1.02B3,2013-06-14 07:11:00,
2013-06-14 03:16:00,50.8,49.7,29.66,ENE,63,2.0,9.0,96,0.13,,,0.53,WeatherCatV1.02B3,2013-06-14 07:16:00,
2013-06-14 03:21:00,50.8,49.7,29.67,NNE,32,0.0,2.0,96,0.12,,,0.54,WeatherCatV1.02B3,2013-06-14 07:21:00,
2013-06-14 03:26:00,50.8,49.7,29.67,NE,44,0.0,2.0,96,0.11,,,0.55,WeatherCatV1.02B3,2013-06-14 07:26:00,
2013-06-14 03:31:00,50.8,49.7,29.67,NE,46,0.0,3.0,96,0.11,,,0.56,WeatherCatV1.02B3,2013-06-14 07:31:00,
2013-06-14 03:36:00,50.8,49.7,29.67,ENE,67,0.0,0.0,96,0.10,,,0.57,WeatherCatV1.02B3,2013-06-14 07:36:00,
2013-06-14 03:41:00,50.8,49.7,29.67,ENE,58,2.0,7.0,96,0.10,,,0.58,WeatherCatV1.02B3,2013-06-14 07:41:00,
2013-06-14 03:46:00,50.9,49.8,29.67,NE,42,2.0,4.0,96,0.13,,,0.59,WeatherCatV1.02B3,2013-06-14 07:46:00,
2013-06-14 03:51:00,50.9,49.8,29.67,ENE,59,0.0,2.0,96,0.17,,,0.60,WeatherCatV1.02B3,2013-06-14 07:51:00,
2013-06-14 03:56:00,51.0,49.9,29.67,NNE,22,0.0,4.0,96,0.13,,,0.61,WeatherCatV1.02B3,2013-06-14 07:56:00,
2013-06-14 04:01:00,51.0,49.9,29.67,ENE,76,0.0,0.0,96,0.12,,,0.62,WeatherCatV1.02B3,2013-06-14 08:01:00,
2013-06-14 04:06:00,51.0,49.9,29.67,NW,310,0.0,4.0,96,0.08,,,0.63,WeatherCatV1.02B3,2013-06-14 08:06:00,
2013-06-14 04:11:00,51.1,50.0,29.67,NE,34,0.0,6.0,96,0.08,,,0.63,WeatherCatV1.02B3,2013-06-14 08:11:00,
2013-06-14 04:16:00,51.1,50.0,29.67,NE,43,0.0,0.0,96,0.08,,,0.64,WeatherCatV1.02B3,2013-06-14 08:16:00,
2013-06-14 04:21:00,51.2,50.1,29.67,North,0,4.0,6.0,96,0.10,,,0.65,WeatherCatV1.02B3,2013-06-14 08:21:00,
2013-06-14 04:26:00,51.2,50.1,29.67,NE,40,0.0,3.0,96,0.14,,,0.66,WeatherCatV1.02B3,2013-06-14 08:26:00,
2013-06-14 04:31:00,51.2,50.1,29.67,North,5,0.0,4.0,96,0.13,,,0.67,WeatherCatV1.02B3,2013-06-14 08:31:00,
2013-06-14 04:36:00,51.2,50.1,29.66,NE,45,0.0,5.0,96,0.07,,,0.68,WeatherCatV1.02B3,2013-06-14 08:36:00,
2013-06-14 04:41:00,51.2,50.1,29.67,NNE,17,3.0,8.0,96,0.07,,,0.68,WeatherCatV1.02B3,2013-06-14 08:41:00,
2013-06-14 04:46:00,51.3,50.2,29.67,NNE,26,0.0,4.0,96,0.05,,,0.68,WeatherCatV1.02B3,2013-06-14 08:46:00,
2013-06-14 04:51:00,51.3,50.2,29.67,NE,49,3.0,3.0,96,0.04,,,0.69,WeatherCatV1.02B3,2013-06-14 08:51:00,
2013-06-14 04:56:00,51.4,50.3,29.67,NNW,330,0.0,2.0,96,0.04,,,0.69,WeatherCatV1.02B3,2013-06-14 08:56:00,
2013-06-14 05:01:00,51.4,50.3,29.67,North,355,0.0,5.0,96,0.04,,,0.69,WeatherCatV1.02B3,2013-06-14 09:01:00,
2013-06-14 05:06:00,51.5,50.4,29.67,NW,322,0.0,4.0,96,0.00,,,0.69,WeatherCatV1.02B3,2013-06-14 09:06:00,
2013-06-14 05:11:00,51.6,50.5,29.67,NE,36,0.0,1.0,96,0.00,,,0.70,WeatherCatV1.02B3,2013-06-14 09:11:00,
2013-06-14 05:16:00,51.6,50.5,29.68,North,355,0.0,3.0,96,0.00,,,0.70,WeatherCatV1.02B3,2013-06-14 09:16:00,
2013-06-14 05:21:00,51.7,50.6,29.68,NNE,28,0.0,0.0,96,0.00,,,0.70,WeatherCatV1.02B3,2013-06-14 09:21:00,
2013-06-14 05:26:00,51.7,50.6,29.68,North,355,0.0,0.0,96,0.06,,,0.71,WeatherCatV1.02B3,2013-06-14 09:26:00,
2013-06-14 05:31:00,51.7,50.6,29.68,North,5,5.0,5.0,96,0.08,,,0.72,WeatherCatV1.02B3,2013-06-14 09:31:00,
2013-06-14 05:36:00,51.7,50.6,29.68,NE,35,0.0,5.0,96,0.11,,,0.73,WeatherCatV1.02B3,2013-06-14 09:36:00,
2013-06-14 05:41:00,51.8,50.7,29.69,NE,47,0.0,3.0,96,0.17,,,0.74,WeatherCatV1.02B3,2013-06-14 09:41:00,
2013-06-14 05:46:00,51.8,50.7,29.69,NE,38,3.0,7.0,96,0.15,,,0.76,WeatherCatV1.02B3,2013-06-14 09:46:00,
2013-06-14 05:51:00,51.8,50.7,29.69,WSW,251,0.0,2.0,96,0.17,,,0.77,WeatherCatV1.02B3,2013-06-14 09:51:00,
2013-06-14 05:56:00,51.8,50.7,29.69,North,5,0.0,3.0,96,0.14,,,0.78,WeatherCatV1.02B3,2013-06-14 09:56:00,
2013-06-14 06:01:00,51.9,50.8,29.70,NNE,32,0.0,0.0,96,0.13,,,0.79,WeatherCatV1.02B3,2013-06-14 10:01:00,
2013-06-14 06:06:00,51.9,50.8,29.69,WNW,302,0.0,4.0,96,0.12,,,0.80,WeatherCatV1.02B3,2013-06-14 10:06:00,
2013-06-14 06:11:00,51.9,50.8,29.69,NW,326,0.0,2.0,96,0.14,,,0.81,WeatherCatV1.02B3,2013-06-14 10:11:00,
2013-06-14 06:16:00,51.9,50.8,29.70,NE,42,0.0,1.0,96,0.18,,,0.83,WeatherCatV1.02B3,2013-06-14 10:16:00,
2013-06-14 06:21:00,51.9,50.8,29.70,NE,38,0.0,5.0,96,0.19,,,0.84,WeatherCatV1.02B3,2013-06-14 10:21:00,
2013-06-14 06:26:00,51.9,50.8,29.70,North,10,6.0,6.0,96,0.23,,,0.86,WeatherCatV1.02B3,2013-06-14 10:26:00,
2013-06-14 06:31:00,51.9,50.8,29.70,NNE,33,1.0,6.0,96,0.23,,,0.88,WeatherCatV1.02B3,2013-06-14 10:31:00,
2013-06-14 06:36:00,51.9,50.8,29.70,NNE,20,0.0,1.0,96,0.19,,,0.90,WeatherCatV1.02B3,2013-06-14 10:36:00,
2013-06-14 06:41:00,51.9,50.8,29.70,NW,309,0.0,1.0,96,0.13,,,0.91,WeatherCatV1.02B3,2013-06-14 10:41:00,
2013-06-14 06:46:00,51.9,50.8,29.71,NE,41,0.0,0.0,96,0.11,,,0.92,WeatherCatV1.02B3,2013-06-14 10:46:00,
2013-06-14 06:51:00,51.9,50.8,29.71,ENE,59,0.0,1.0,96,0.10,,,0.93,WeatherCatV1.02B3,2013-06-14 10:51:00,
2013-06-14 06:56:00,51.9,50.8,29.71,NNE,14,1.0,3.0,96,0.11,,,0.93,WeatherCatV1.02B3,2013-06-14 10:56:00,
2013-06-14 07:01:00,52.0,50.9,29.71,NE,35,1.0,2.0,96,0.11,,,0.94,WeatherCatV1.02B3,2013-06-14 11:01:00,
2013-06-14 07:06:00,52.0,50.9,29.71,East,84,4.0,5.0,96,0.08,,,0.95,WeatherCatV1.02B3,2013-06-14 11:06:00,
2013-06-14 07:11:00,52.0,50.9,29.72,North,5,0.0,4.0,96,0.08,,,0.95,WeatherCatV1.02B3,2013-06-14 11:11:00,
2013-06-14 07:16:00,52.0,50.9,29.72,NE,54,0.0,1.0,96,0.08,,,0.96,WeatherCatV1.02B3,2013-06-14 11:16:00,
2013-06-14 07:19:00,52.0,50.9,29.72,North,355,0.0,0.0,96,0.12,,,0.97,WeatherCatV1.02B3,2013-06-14 11:19:00,
2013-06-14 07:24:00,52.0,50.9,29.72,West,262,0.0,4.0,96,0.14,,,0.98,WeatherCatV1.02B3,2013-06-14 11:24:00,
2013-06-14 07:29:00,52.0,50.9,29.73,NW,305,2.0,5.0,96,0.11,,,0.99,WeatherCatV1.02B3,2013-06-14 11:29:00,
2013-06-14 07:34:00,52.0,50.9,29.73,NNE,17,4.0,4.0,96,0.13,,,1.00,WeatherCatV1.02B3,2013-06-14 11:34:00,
2013-06-14 07:39:00,52.0,50.9,29.72,West,280,3.0,3.0,96,0.11,,,1.01,WeatherCatV1.02B3,2013-06-14 11:39:00,
2013-06-14 07:44:00,52.0,50.9,29.72,North,0,4.0,4.0,96,0.08,,,1.01,WeatherCatV1.02B3,2013-06-14 11:44:00,
2013-06-14 07:49:00,51.9,50.8,29.73,NE,56,0.0,1.0,96,0.08,,,1.02,WeatherCatV1.02B3,2013-06-14 11:49:00,
2013-06-14 07:54:00,51.8,50.7,29.72,WNW,293,0.0,4.0,96,0.06,,,1.02,WeatherCatV1.02B3,2013-06-14 11:54:00,
2013-06-14 07:59:00,51.7,50.6,29.72,SSE,155,6.0,6.0,96,0.05,,,1.03,WeatherCatV1.02B3,2013-06-14 11:59:00,
2013-06-14 08:04:00,51.6,50.5,29.72,East,94,1.0,2.0,96,0.05,,,1.03,WeatherCatV1.02B3,2013-06-14 12:04:00,
2013-06-14 08:09:00,51.5,50.4,29.72,ESE,107,1.0,8.0,96,0.05,,,1.04,WeatherCatV1.02B3,2013-06-14 12:09:00,
2013-06-14 08:15:00,51.4,50.3,29.72,North,0,2.0,2.0,96,0.09,,,1.05,WeatherCatV1.02B3,2013-06-14 12:15:00,
2013-06-14 08:20:00,51.4,50.3,29.73,NE,36,1.0,6.0,96,0.09,,,1.05,WeatherCatV1.02B3,2013-06-14 12:20:00,
2013-06-14 08:25:00,51.4,50.3,29.73,ENE,72,0.0,5.0,96,0.07,,,1.06,WeatherCatV1.02B3,2013-06-14 12:25:00,
2013-06-14 08:30:00,51.5,50.4,29.73,North,9,0.0,1.0,96,0.07,,,1.06,WeatherCatV1.02B3,2013-06-14 12:30:00,
2013-06-14 08:35:00,51.6,50.5,29.74,WNW,288,0.0,4.0,96,0.04,,,1.06,WeatherCatV1.02B3,2013-06-14 12:35:00,
2013-06-14 08:40:00,51.7,50.6,29.73,WNW,288,0.0,0.0,96,0.00,,,1.06,WeatherCatV1.02B3,2013-06-14 12:40:00,
2013-06-14 08:45:00,51.7,50.6,29.73,ENE,71,0.0,0.0,96,0.00,,,1.06,WeatherCatV1.02B3,2013-06-14 12:45:00,
2013-06-14 08:50:00,51.8,50.7,29.73,NW,309,0.0,3.0,96,0.00,,,1.06,WeatherCatV1.02B3,2013-06-14 12:50:00,
2013-06-14 08:55:00,51.8,50.7,29.73,NNE,29,0.0,6.0,96,0.00,,,1.06,WeatherCatV1.02B3,2013-06-14 12:55:00,
2013-06-14 09:00:00,51.9,50.8,29.73,NNE,16,0.0,0.0,96,0.00,,,1.06,WeatherCatV1.02B3,2013-06-14 13:00:00,
2013-06-14 09:05:00,52.2,51.1,29.73,NE,52,0.0,1.0,96,0.00,,,1.06,WeatherCatV1.02B3,2013-06-14 13:05:00,
2013-06-14 09:10:00,52.3,51.2,29.73,NW,323,0.0,2.0,96,0.00,,,1.07,WeatherCatV1.02B3,2013-06-14 13:10:00,
2013-06-14 09:15:00,52.6,51.5,29.73,NNE,30,3.0,7.0,96,0.00,,,1.07,WeatherCatV1.02B3,2013-06-14 13:15:00,
2013-06-14 09:20:00,52.7,51.6,29.73,ENE,66,0.0,0.0,96,0.00,,,1.07,WeatherCatV1.02B3,2013-06-14 13:20:00,
2013-06-14 09:25:00,52.8,51.7,29.73,NW,326,0.0,9.0,96,0.00,,,1.07,WeatherCatV1.02B3,2013-06-14 13:25:00,
2013-06-14 09:30:00,52.8,51.7,29.73,NE,40,0.0,2.0,96,0.00,,,1.07,WeatherCatV1.02B3,2013-06-14 13:30:00,
2013-06-14 09:35:00,53.1,52.0,29.73,NW,323,0.0,3.0,96,0.00,,,1.07,WeatherCatV1.02B3,2013-06-14 13:35:00,
2013-06-14 09:40:00,53.4,52.3,29.73,ENE,74,0.0,3.0,96,0.00,,,1.07,WeatherCatV1.02B3,2013-06-14 13:40:00,
2013-06-14 09:45:00,53.5,52.4,29.73,NW,317,0.0,1.0,96,0.00,,,1.07,WeatherCatV1.02B3,2013-06-14 13:45:00,
2013-06-14 09:50:00,53.6,52.5,29.73,ENE,62,1.0,12.0,96,0.00,,,1.07,WeatherCatV1.02B3,2013-06-14 13:50:00,
2013-06-14 09:55:00,53.5,52.4,29.73,NE,47,0.0,5.0,96,0.00,,,1.07,WeatherCatV1.02B3,2013-06-14 13:55:00,
2013-06-14 10:00:00,53.5,52.4,29.73,NE,38,0.0,1.0,96,0.00,,,1.07,WeatherCatV1.02B3,2013-06-14 14:00:00,
2013-06-14 10:05:00,53.8,52.7,29.74,NE,38,0.0,0.0,96,0.00,,,1.07,WeatherCatV1.02B3,2013-06-14 14:05:00,
2013-06-14 10:10:00,53.9,52.8,29.74,North,11,0.0,0.0,96,0.00,,,1.07,WeatherCatV1.02B3,2013-06-14 14:10:00,
2013-06-14 10:15:00,54.1,53.0,29.74,NE,36,2.0,3.0,96,0.00,,,1.07,WeatherCatV1.02B3,2013-06-14 14:15:00,
2013-06-14 10:20:00,54.5,53.1,29.74,NNW,327,0.0,1.0,95,0.00,,,1.07,WeatherCatV1.02B3,2013-06-14 14:20:00,
2013-06-14 10:25:00,55.4,54.3,29.74,North,5,2.0,2.0,96,0.00,,,1.07,WeatherCatV1.02B3,2013-06-14 14:25:00,
2013-06-14 10:30:00,55.6,54.2,29.74,ENE,72,0.0,2.0,95,0.00,,,1.07,WeatherCatV1.02B3,2013-06-14 14:30:00,
2013-06-14 10:35:00,56.0,54.6,29.74,NE,56,0.0,1.0,95,0.00,,,1.07,WeatherCatV1.02B3,2013-06-14 14:35:00,
2013-06-14 10:40:00,55.9,53.9,29.74,NNW,335,2.0,5.0,93,0.00,,,1.07,WeatherCatV1.02B3,2013-06-14 14:40:00,
2013-06-14 10:45:00,55.7,53.1,29.74,NE,51,0.0,6.0,91,0.00,,,1.07,WeatherCatV1.02B3,2013-06-14 14:45:00,
2013-06-14 10:50:00,55.9,53.9,29.74,NE,48,0.0,0.0,93,0.00,,,1.07,WeatherCatV1.02B3,2013-06-14 14:50:00,
2013-06-14 10:55:00,56.0,53.4,29.75,West,278,0.0,5.0,91,0.00,,,1.07,WeatherCatV1.02B3,2013-06-14 14:55:00,
2013-06-14 11:00:00,56.1,54.1,29.74,West,278,0.0,1.0,93,0.00,,,1.07,WeatherCatV1.02B3,2013-06-14 15:00:00,
2013-06-14 11:05:00,56.2,53.3,29.74,NNE,32,0.0,8.0,90,0.00,,,1.07,WeatherCatV1.02B3,2013-06-14 15:05:00,
2013-06-14 11:10:00,56.4,53.8,29.75,NW,304,0.0,0.0,91,0.00,,,1.07,WeatherCatV1.02B3,2013-06-14 15:10:00,
2013-06-14 11:15:00,57.0,54.7,29.74,NNW,340,5.0,6.0,92,0.00,,,1.07,WeatherCatV1.02B3,2013-06-14 15:15:00,
2013-06-14 11:20:00,57.9,55.3,29.74,NNW,329,1.0,4.0,91,0.00,,,1.07,WeatherCatV1.02B3,2013-06-14 15:20:00,
2013-06-14 11:25:00,58.5,55.3,29.74,NNW,328,4.0,5.0,89,0.00,,,1.07,WeatherCatV1.02B3,2013-06-14 15:25:00,
2013-06-14 11:30:00,58.5,55.0,29.74,NE,45,3.0,5.0,88,0.00,,,1.07,WeatherCatV1.02B3,2013-06-14 15:30:00,
2013-06-14 11:35:00,58.3,53.5,29.74,North,350,1.0,5.0,84,0.00,,,1.07,WeatherCatV1.02B3,2013-06-14 15:35:00,
2013-06-14 11:40:00,58.7,53.5,29.74,NNW,340,0.0,5.0,83,0.00,,,1.07,WeatherCatV1.02B3,2013-06-14 15:40:00,
2013-06-14 11:45:00,59.2,54.7,29.75,NE,53,0.0,3.0,85,0.00,,,1.07,WeatherCatV1.02B3,2013-06-14 15:45:00,
2013-06-14 11:50:00,59.6,54.1,29.75,NE,44,0.0,1.0,82,0.00,,,1.07,WeatherCatV1.02B3,2013-06-14 15:50:00,
2013-06-14 11:55:00,60.3,54.8,29.75,NNW,346,0.0,1.0,82,0.00,,,1.07,WeatherCatV1.02B3,2013-06-14 15:55:00,
2013-06-14 12:00:00,60.8,53.9,29.75,NE,34,0.0,2.0,78,0.00,,,1.07,WeatherCatV1.02B3,2013-06-14 16:00:00,
2013-06-14 12:05:00,61.1,53.8,29.75,NE,53,0.0,1.0,77,0.00,,,1.07,WeatherCatV1.02B3,2013-06-14 16:05:00,
2013-06-14 12:10:00,61.1,54.9,29.75,East,90,4.0,4.0,80,0.00,,,1.07,WeatherCatV1.02B3,2013-06-14 16:10:00,
2013-06-14 12:15:00,61.0,54.8,29.75,ENE,71,0.0,4.0,80,0.00,,,1.07,WeatherCatV1.02B3,2013-06-14 16:15:00,
2013-06-14 12:20:00,60.8,54.2,29.75,ESE,120,0.0,1.0,79,0.00,,,1.07,WeatherCatV1.02B3,2013-06-14 16:20:00,
2013-06-14 12:25:00,60.9,54.7,29.75,NNE,19,0.0,0.0,80,0.00,,,1.07,WeatherCatV1.02B3,2013-06-14 16:25:00,
2013-06-14 12:30:00,61.3,54.4,29.75,NE,41,0.0,4.0,78,0.00,,,1.07,WeatherCatV1.02B3,2013-06-14 16:30:00,
2013-06-14 12:35:00,61.3,53.7,29.75,NE,42,2.0,3.0,76,0.00,,,1.07,WeatherCatV1.02B3,2013-06-14 16:35:00,
2013-06-14 12:40:00,61.2,53.6,29.75,ENE,71,0.0,2.0,76,0.00,,,1.07,WeatherCatV1.02B3,2013-06-14 16:40:00,
2013-06-14 12:45:00,61.3,54.0,29.75,NW,306,2.0,4.0,77,0.00,,,1.07,WeatherCatV1.02B3,2013-06-14 16:45:00,
2013-06-14 12:50:00,61.6,54.3,29.75,West,262,0.0,4.0,77,0.00,,,1.07,WeatherCatV1.02B3,2013-06-14 16:50:00,
2013-06-14 12:55:00,62.0,54.3,29.75,SE,125,0.0,1.0,76,0.00,,,1.07,WeatherCatV1.02B3,2013-06-14 16:55:00,
2013-06-14 13:00:00,62.2,54.2,29.75,NW,322,0.0,4.0,75,0.00,,,1.07,WeatherCatV1.02B3,2013-06-14 17:00:00,
2013-06-14 13:05:00,62.4,54.0,29.75,WNW,284,0.0,3.0,74,0.00,,,1.07,WeatherCatV1.02B3,2013-06-14 17:05:00,
2013-06-14 13:10:00,62.7,55.4,29.75,WNW,291,0.0,1.0,77,0.00,,,1.07,WeatherCatV1.02B3,2013-06-14 17:10:00,
2013-06-14 13:15:00,62.9,53.7,29.75,WNW,293,0.0,0.0,72,0.00,,,1.07,WeatherCatV1.02B3,2013-06-14 17:15:00,
2013-06-14 13:20:00,63.0,54.6,29.75,NW,314,0.0,1.0,74,0.00,,,1.07,WeatherCatV1.02B3,2013-06-14 17:20:00,
2013-06-14 13:25:00,63.2,54.4,29.75,NE,55,0.0,7.0,73,0.00,,,1.07,WeatherCatV1.02B3,2013-06-14 17:25:00,
2013-06-14 13:30:00,63.2,54.4,29.75,ENE,76,0.0,0.0,73,0.00,,,1.07,WeatherCatV1.02B3,2013-06-14 17:30:00,
2013-06-14 13:35:00,63.3,55.6,29.75,East,84,0.0,3.0,76,0.00,,,1.07,WeatherCatV1.02B3,2013-06-14 17:35:00,
2013-06-14 13:40:00,63.2,54.4,29.75,West,272,4.0,7.0,73,0.00,,,1.07,WeatherCatV1.02B3,2013-06-14 17:40:00,
2013-06-14 13:45:00,63.3,55.2,29.75,NW,311,0.0,0.0,75,0.00,,,1.07,WeatherCatV1.02B3,2013-06-14 17:45:00,
2013-06-14 13:51:00,63.6,55.2,29.75,West,275,3.0,6.0,74,0.00,,,1.07,WeatherCatV1.02B3,2013-06-14 17:51:00,
2013-06-14 13:57:00,63.9,55.8,29.75,West,259,0.0,5.0,75,0.00,,,1.07,WeatherCatV1.02B3,2013-06-14 17:57:00,
2013-06-14 14:04:00,64.1,56.0,29.75,NE,41,0.0,0.0,75,0.00,,,1.07,WeatherCatV1.02B3,2013-06-14 18:04:00,
2013-06-14 14:09:00,64.7,54.7,29.75,NW,315,0.0,8.0,70,0.00,,,1.07,WeatherCatV1.02B3,2013-06-14 18:09:00,
2013-06-14 14:14:00,64.9,55.3,29.75,NW,315,0.0,6.0,71,0.00,,,1.07,WeatherCatV1.02B3,2013-06-14 18:14:00,
2013-06-14 14:19:00,65.0,53.8,29.74,WNW,303,0.0,2.0,67,0.00,,,1.07,WeatherCatV1.02B3,2013-06-14 18:19:00,
2013-06-14 14:24:00,65.0,55.7,29.75,NW,304,0.0,2.0,72,0.00,,,1.07,WeatherCatV1.02B3,2013-06-14 18:24:00,
2013-06-14 14:29:00,65.2,56.3,29.74,WNW,296,1.0,1.0,73,0.00,,,1.07,WeatherCatV1.02B3,2013-06-14 18:29:00,
2013-06-14 14:34:00,65.4,55.0,29.75,WNW,296,0.0,1.0,69,0.00,,,1.07,WeatherCatV1.02B3,2013-06-14 18:34:00,
2013-06-14 14:39:00,65.5,55.4,29.74,WSW,258,0.0,4.0,70,0.00,,,1.07,WeatherCatV1.02B3,2013-06-14 18:39:00,
2013-06-14 14:44:00,65.8,55.3,29.74,West,268,0.0,4.0,69,0.00,,,1.07,WeatherCatV1.02B3,2013-06-14 18:44:00,
2013-06-14 14:49:00,66.2,56.1,29.74,West,268,0.0,0.0,70,0.00,,,1.07,WeatherCatV1.02B3,2013-06-14 18:49:00,
2013-06-14 14:54:00,66.3,56.2,29.74,NNW,342,3.0,10.0,70,0.00,,,1.07,WeatherCatV1.02B3,2013-06-14 18:54:00,
2013-06-14 14:59:00,66.3,55.4,29.74,NNW,346,5.0,5.0,68,0.00,,,1.07,WeatherCatV1.02B3,2013-06-14 18:59:00,
2013-06-14 15:04:00,66.9,56.0,29.74,West,271,0.0,0.0,68,0.00,,,1.07,WeatherCatV1.02B3,2013-06-14 19:04:00,
2013-06-14 15:09:00,67.5,57.8,29.74,NW,311,0.0,3.0,71,0.00,,,1.07,WeatherCatV1.02B3,2013-06-14 19:09:00,
2013-06-14 15:14:00,67.5,57.8,29.74,NW,311,0.0,1.0,71,0.00,,,1.07,WeatherCatV1.02B3,2013-06-14 19:14:00,
2013-06-14 15:19:00,67.6,57.1,29.74,NW,322,0.0,0.0,69,0.00,,,1.07,WeatherCatV1.02B3,2013-06-14 19:19:00,
2013-06-14 15:24:00,67.4,56.1,29.74,WSW,257,0.0,3.0,67,0.00,,,1.07,WeatherCatV1.02B3,2013-06-14 19:24:00,
2013-06-14 15:29:00,67.2,55.9,29.74,NNW,333,0.0,3.0,67,0.00,,,1.07,WeatherCatV1.02B3,2013-06-14 19:29:00,
2013-06-14 15:34:00,67.4,57.3,29.73,WNW,301,7.0,8.0,70,0.00,,,1.07,WeatherCatV1.02B3,2013-06-14 19:34:00,
2013-06-14 15:39:00,67.6,57.1,29.73,WNW,298,0.0,5.0,69,0.00,,,1.07,WeatherCatV1.02B3,2013-06-14 19:39:00,
2013-06-14 15:44:00,68.0,57.8,29.73,NW,311,0.0,4.0,70,0.00,,,1.07,WeatherCatV1.02B3,2013-06-14 19:44:00,
2013-06-14 15:49:00,68.0,56.6,29.73,NW,324,0.0,3.0,67,0.00,,,1.07,WeatherCatV1.02B3,2013-06-14 19:49:00,
2013-06-14 15:54:00,67.9,56.5,29.73,WNW,289,4.0,6.0,67,0.00,,,1.07,WeatherCatV1.02B3,2013-06-14 19:54:00,
2013-06-14 15:59:00,67.5,56.6,29.73,West,281,3.0,7.0,68,0.00,,,1.07,WeatherCatV1.02B3,2013-06-14 19:59:00,
2013-06-14 16:04:00,67.1,56.2,29.73,WNW,282,3.0,3.0,68,0.00,,,1.07,WeatherCatV1.02B3,2013-06-14 20:04:00,
2013-06-14 16:09:00,67.2,57.5,29.73,WNW,282,0.0,3.0,71,0.00,,,1.07,WeatherCatV1.02B3,2013-06-14 20:09:00,
2013-06-14 16:14:00,67.6,57.1,29.73,WNW,282,0.0,0.0,69,0.00,,,1.07,WeatherCatV1.02B3,2013-06-14 20:14:00,
2013-06-14 16:19:00,68.0,58.2,29.73,WNW,282,4.0,4.0,71,0.00,,,1.07,WeatherCatV1.02B3,2013-06-14 20:19:00,
2013-06-14 16:24:00,68.1,56.7,29.73,WNW,282,0.0,0.0,67,0.00,,,1.07,WeatherCatV1.02B3,2013-06-14 20:24:00,
2013-06-14 16:29:00,68.3,57.3,29.73,West,281,3.0,4.0,68,0.00,,,1.07,WeatherCatV1.02B3,2013-06-14 20:29:00,
2013-06-14 16:34:00,68.7,56.9,29.73,WNW,282,0.0,4.0,66,0.00,,,1.07,WeatherCatV1.02B3,2013-06-14 20:34:00,
2013-06-14 16:39:00,69.1,57.7,29.72,WNW,282,0.0,0.0,67,0.00,,,1.07,WeatherCatV1.02B3,2013-06-14 20:39:00,
2013-06-14 16:44:00,69.4,58.0,29.72,WNW,283,0.0,1.0,67,0.00,,,1.07,WeatherCatV1.02B3,2013-06-14 20:44:00,
2013-06-14 16:49:00,69.6,56.9,29.72,WNW,283,0.0,5.0,64,0.00,,,1.07,WeatherCatV1.02B3,2013-06-14 20:49:00,
2013-06-14 16:54:00,69.9,57.2,29.72,WNW,283,0.0,0.0,64,0.00,,,1.07,WeatherCatV1.02B3,2013-06-14 20:54:00,
2013-06-14 16:59:00,70.2,57.4,29.72,WNW,282,4.0,4.0,64,0.00,,,1.07,WeatherCatV1.02B3,2013-06-14 20:59:00,
2013-06-14 17:04:00,70.4,58.1,29.72,WSW,237,0.0,1.0,65,0.00,,,1.07,WeatherCatV1.02B3,2013-06-14 21:04:00,
2013-06-14 17:09:00,70.4,57.2,29.72,NE,38,0.0,1.0,63,0.00,,,1.07,WeatherCatV1.02B3,2013-06-14 21:09:00,
2013-06-14 17:14:00,70.3,55.7,29.72,NW,308,0.0,3.0,60,0.00,,,1.07,WeatherCatV1.02B3,2013-06-14 21:14:00,
2013-06-14 17:19:00,70.4,56.7,29.72,NW,308,0.0,1.0,62,0.00,,,1.07,WeatherCatV1.02B3,2013-06-14 21:19:00,
2013-06-14 17:24:00,70.5,56.8,29.72,NW,308,0.0,0.0,62,0.00,,,1.07,WeatherCatV1.02B3,2013-06-14 21:24:00,
2013-06-14 17:29:00,70.6,55.6,29.72,WNW,286,0.0,5.0,59,0.00,,,1.07,WeatherCatV1.02B3,2013-06-14 21:29:00,
2013-06-14 17:34:00,70.8,55.8,29.72,WNW,286,0.0,2.0,59,0.00,,,1.07,WeatherCatV1.02B3,2013-06-14 21:34:00,
2013-06-14 17:39:00,70.8,55.8,29.72,WNW,286,0.0,1.0,59,0.00,,,1.07,WeatherCatV1.02B3,2013-06-14 21:39:00,
2013-06-14 17:44:00,71.0,55.5,29.72,WNW,286,0.0,2.0,58,0.00,,,1.07,WeatherCatV1.02B3,2013-06-14 21:44:00,
2013-06-14 17:49:00,70.9,55.8,29.72,WNW,286,0.0,2.0,59,0.00,,,1.07,WeatherCatV1.02B3,2013-06-14 21:49:00,
2013-06-14 17:54:00,70.6,57.4,29.72,NW,316,0.0,0.0,63,0.00,,,1.07,WeatherCatV1.02B3,2013-06-14 21:54:00,
2013-06-14 17:59:00,70.7,54.7,29.72,WNW,288,0.0,1.0,57,0.00,,,1.07,WeatherCatV1.02B3,2013-06-14 21:59:00,
2013-06-14 18:04:00,71.0,56.9,29.72,NW,306,0.0,0.0,61,0.00,,,1.07,WeatherCatV1.02B3,2013-06-14 22:04:00,
2013-06-14 18:09:00,71.1,57.0,29.73,NW,306,0.0,0.0,61,0.00,,,1.07,WeatherCatV1.02B3,2013-06-14 22:09:00,
2013-06-14 18:14:00,71.1,55.1,29.73,NW,306,0.0,4.0,57,0.00,,,1.07,WeatherCatV1.02B3,2013-06-14 22:14:00,
2013-06-14 18:19:00,71.2,54.7,29.73,West,281,0.0,5.0,56,0.00,,,1.07,WeatherCatV1.02B3,2013-06-14 22:19:00,
2013-06-14 18:24:00,71.5,54.0,29.73,West,281,0.0,1.0,54,0.00,,,1.07,WeatherCatV1.02B3,2013-06-14 22:24:00,
2013-06-14 18:29:00,72.0,54.4,29.73,West,281,0.0,2.0,54,0.00,,,1.07,WeatherCatV1.02B3,2013-06-14 22:29:00,
2013-06-14 18:34:00,72.1,57.0,29.73,West,281,0.0,0.0,59,0.00,,,1.07,WeatherCatV1.02B3,2013-06-14 22:34:00,
2013-06-14 18:39:00,71.9,56.3,29.73,West,281,0.0,1.0,58,0.00,,,1.07,WeatherCatV1.02B3,2013-06-14 22:39:00,
2013-06-14 18:44:00,71.7,54.7,29.73,WNW,283,4.0,4.0,55,0.00,,,1.07,WeatherCatV1.02B3,2013-06-14 22:44:00,
2013-06-14 18:49:00,71.4,54.4,29.74,WNW,283,0.0,0.0,55,0.00,,,1.07,WeatherCatV1.02B3,2013-06-14 22:49:00,
2013-06-14 18:54:00,71.1,56.0,29.74,WNW,283,0.0,0.0,59,0.00,,,1.07,WeatherCatV1.02B3,2013-06-14 22:54:00,
2013-06-14 18:59:00,70.7,57.0,29.74,WNW,283,0.0,0.0,62,0.00,,,1.07,WeatherCatV1.02B3,2013-06-14 22:59:00,
2013-06-14 19:04:00,70.2,57.9,29.74,WNW,283,0.0,0.0,65,0.00,,,1.07,WeatherCatV1.02B3,2013-06-14 23:04:00,
2013-06-14 19:09:00,69.5,58.5,29.74,WNW,283,0.0,0.0,68,0.00,,,1.07,WeatherCatV1.02B3,2013-06-14 23:09:00,
2013-06-14 19:14:00,68.8,58.2,29.74,WNW,283,0.0,0.0,69,0.00,,,1.07,WeatherCatV1.02B3,2013-06-14 23:14:00,
2013-06-14 19:19:00,67.9,58.5,29.74,WNW,283,0.0,0.0,72,0.00,,,1.07,WeatherCatV1.02B3,2013-06-14 23:19:00,
2013-06-14 19:24:00,67.3,59.1,29.74,WNW,283,0.0,0.0,75,0.00,,,1.07,WeatherCatV1.02B3,2013-06-14 23:24:00,
2013-06-14 19:29:00,66.7,58.9,29.74,WNW,283,0.0,0.0,76,0.00,,,1.07,WeatherCatV1.02B3,2013-06-14 23:29:00,
2013-06-14 19:34:00,66.3,58.9,29.74,WNW,283,0.0,0.0,77,0.00,,,1.07,WeatherCatV1.02B3,2013-06-14 23:34:00,
2013-06-14 19:39:00,65.7,58.6,29.74,WNW,283,0.0,0.0,78,0.00,,,1.07,WeatherCatV1.02B3,2013-06-14 23:39:00,
2013-06-14 19:44:00,65.3,58.3,29.74,WNW,283,0.0,0.0,78,0.00,,,1.07,WeatherCatV1.02B3,2013-06-14 23:44:00,
2013-06-14 19:49:00,64.8,58.5,29.74,WNW,283,0.0,0.0,80,0.00,,,1.07,WeatherCatV1.02B3,2013-06-14 23:49:00,
2013-06-14 19:54:00,64.2,57.9,29.74,WNW,283,0.0,0.0,80,0.00,,,1.07,WeatherCatV1.02B3,2013-06-14 23:54:00,
2013-06-14 19:59:00,63.8,57.5,29.74,WNW,283,0.0,0.0,80,0.00,,,1.07,WeatherCatV1.02B3,2013-06-14 23:59:00,
2013-06-14 20:04:00,63.5,57.6,29.74,WNW,283,0.0,0.0,81,0.00,,,1.07,WeatherCatV1.02B3,2013-06-15 00:04:00,
2013-06-14 20:09:00,63.4,56.8,29.74,WNW,283,0.0,0.0,79,0.00,,,1.07,WeatherCatV1.02B3,2013-06-15 00:09:00,
2013-06-14 20:14:00,63.3,57.4,29.74,WNW,283,1.0,3.0,81,0.00,,,1.07,WeatherCatV1.02B3,2013-06-15 00:14:00,
2013-06-14 20:19:00,63.2,56.6,29.74,WSW,237,0.0,2.0,79,0.00,,,1.07,WeatherCatV1.02B3,2013-06-15 00:19:00,
2013-06-14 20:24:00,63.2,56.2,29.75,SW,223,3.0,9.0,78,0.00,,,1.07,WeatherCatV1.02B3,2013-06-15 00:24:00,
2013-06-14 20:29:00,63.3,56.0,29.75,WSW,242,3.0,6.0,77,0.00,,,1.07,WeatherCatV1.02B3,2013-06-15 00:29:00,
2013-06-14 20:34:00,63.5,55.8,29.75,WSW,242,0.0,1.0,76,0.00,,,1.07,WeatherCatV1.02B3,2013-06-15 00:34:00,
2013-06-14 20:39:00,63.6,55.9,29.75,WSW,242,0.0,0.0,76,0.00,,,1.07,WeatherCatV1.02B3,2013-06-15 00:39:00,
2013-06-14 20:44:00,63.6,55.9,29.75,WSW,242,0.0,0.0,76,0.00,,,1.07,WeatherCatV1.02B3,2013-06-15 00:44:00,
2013-06-14 20:49:00,63.7,55.6,29.75,WSW,242,0.0,0.0,75,0.00,,,1.07,WeatherCatV1.02B3,2013-06-15 00:49:00,
2013-06-14 20:54:00,63.6,55.9,29.75,WSW,242,0.0,2.0,76,0.00,,,1.07,WeatherCatV1.02B3,2013-06-15 00:54:00,
2013-06-14 20:59:00,63.6,55.9,29.75,WSW,242,0.0,1.0,76,0.00,,,1.07,WeatherCatV1.02B3,2013-06-15 00:59:00,
2013-06-14 21:04:00,63.5,55.8,29.76,WSW,242,3.0,3.0,76,0.00,,,1.07,WeatherCatV1.02B3,2013-06-15 01:04:00,
2013-06-14 21:09:00,63.4,55.7,29.76,WSW,242,1.0,1.0,76,0.00,,,1.07,WeatherCatV1.02B3,2013-06-15 01:09:00,
2013-06-14 21:14:00,63.4,55.3,29.76,WSW,242,0.0,1.0,75,0.00,,,1.07,WeatherCatV1.02B3,2013-06-15 01:14:00,
2013-06-14 21:19:00,63.4,55.7,29.76,WSW,242,2.0,4.0,76,0.00,,,1.07,WeatherCatV1.02B3,2013-06-15 01:19:00,
2013-06-14 21:24:00,63.5,55.8,29.76,WSW,242,0.0,3.0,76,0.00,,,1.07,WeatherCatV1.02B3,2013-06-15 01:24:00,
2013-06-14 21:29:00,63.4,55.7,29.76,WSW,248,4.0,4.0,76,0.00,,,1.07,WeatherCatV1.02B3,2013-06-15 01:29:00,
2013-06-14 21:34:00,63.3,56.0,29.77,WSW,248,0.0,0.0,77,0.00,,,1.07,WeatherCatV1.02B3,2013-06-15 01:34:00,
2013-06-14 21:39:00,63.2,55.9,29.77,WSW,248,2.0,5.0,77,0.00,,,1.07,WeatherCatV1.02B3,2013-06-15 01:39:00,
2013-06-14 21:44:00,63.2,55.9,29.77,SW,236,2.0,7.0,77,0.00,,,1.07,WeatherCatV1.02B3,2013-06-15 01:44:00,
2013-06-14 21:49:00,63.1,55.4,29.77,WSW,242,3.0,3.0,76,0.00,,,1.07,WeatherCatV1.02B3,2013-06-15 01:49:00,
2013-06-14 21:54:00,63.1,55.4,29.77,WSW,252,0.0,5.0,76,0.00,,,1.07,WeatherCatV1.02B3,2013-06-15 01:54:00,
2013-06-14 21:59:00,63.1,55.4,29.77,WSW,252,4.0,4.0,76,0.00,,,1.07,WeatherCatV1.02B3,2013-06-15 01:59:00,
2013-06-14 22:04:00,63.1,55.4,29.77,WSW,252,3.0,3.0,76,0.00,,,1.07,WeatherCatV1.02B3,2013-06-15 02:04:00,
2013-06-14 22:09:00,63.1,55.4,29.77,West,263,0.0,4.0,76,0.00,,,1.07,WeatherCatV1.02B3,2013-06-15 02:09:00,
2013-06-14 22:14:00,63.1,56.1,29.77,West,264,0.0,1.0,78,0.00,,,1.07,WeatherCatV1.02B3,2013-06-15 02:14:00,
2013-06-14 22:19:00,63.0,55.3,29.77,West,265,1.0,5.0,76,0.00,,,1.07,WeatherCatV1.02B3,2013-06-15 02:19:00,
2013-06-14 22:24:00,62.9,55.6,29.77,West,265,0.0,0.0,77,0.00,,,1.07,WeatherCatV1.02B3,2013-06-15 02:24:00,
2013-06-14 22:29:00,62.7,55.7,29.77,West,264,0.0,4.0,78,0.00,,,1.07,WeatherCatV1.02B3,2013-06-15 02:29:00,
2013-06-14 22:34:00,62.4,55.4,29.77,West,264,0.0,0.0,78,0.00,,,1.07,WeatherCatV1.02B3,2013-06-15 02:34:00,
2013-06-14 22:39:00,62.0,55.4,29.77,West,265,0.0,0.0,79,0.00,,,1.07,WeatherCatV1.02B3,2013-06-15 02:39:00,
2013-06-14 22:44:00,61.8,55.2,29.77,West,265,0.0,0.0,79,0.00,,,1.07,WeatherCatV1.02B3,2013-06-15 02:44:00,
2013-06-14 22:49:00,61.7,55.1,29.78,West,263,0.0,5.0,79,0.00,,,1.07,WeatherCatV1.02B3,2013-06-15 02:49:00,
2013-06-14 22:54:00,61.7,55.8,29.78,West,263,0.0,0.0,81,0.00,,,1.07,WeatherCatV1.02B3,2013-06-15 02:54:00,
2013-06-14 22:59:00,61.6,55.4,29.78,West,265,0.0,1.0,80,0.00,,,1.07,WeatherCatV1.02B3,2013-06-15 02:59:00,
2013-06-14 23:04:00,61.4,55.2,29.78,West,265,0.0,4.0,80,0.00,,,1.07,WeatherCatV1.02B3,2013-06-15 03:04:00,
2013-06-14 23:09:00,61.3,55.4,29.78,West,271,0.0,0.0,81,0.00,,,1.07,WeatherCatV1.02B3,2013-06-15 03:09:00,
2013-06-14 23:14:00,61.3,55.1,29.79,WNW,299,3.0,3.0,80,0.00,,,1.07,WeatherCatV1.02B3,2013-06-15 03:14:00,
2013-06-14 23:19:00,61.6,54.7,29.78,WNW,296,2.0,6.0,78,0.00,,,1.07,WeatherCatV1.02B3,2013-06-15 03:19:00,
2013-06-14 23:24:00,61.9,54.6,29.79,WNW,296,0.0,0.0,77,0.00,,,1.07,WeatherCatV1.02B3,2013-06-15 03:24:00,
2013-06-14 23:29:00,62.0,55.1,29.79,WNW,296,0.0,2.0,78,0.00,,,1.07,WeatherCatV1.02B3,2013-06-15 03:29:00,
2013-06-14 23:34:00,62.0,54.7,29.79,WNW,296,0.0,3.0,77,0.00,,,1.07,WeatherCatV1.02B3,2013-06-15 03:34:00,
2013-06-14 23:39:00,62.1,54.8,29.79,WNW,283,0.0,2.0,77,0.00,,,1.07,WeatherCatV1.02B3,2013-06-15 03:39:00,
2013-06-14 23:44:00,62.2,54.9,29.79,WNW,283,0.0,1.0,77,0.00,,,1.07,WeatherCatV1.02B3,2013-06-15 03:44:00,
2013-06-14 23:49:00,62.1,54.8,29.79,WNW,283,0.0,3.0,77,0.00,,,1.07,WeatherCatV1.02B3,2013-06-15 03:49:00,
2013-06-14 23:54:00,62.1,54.8,29.79,WNW,287,0.0,1.0,77,0.00,,,1.07,WeatherCatV1.02B3,2013-06-15 03:54:00,
2013-06-14 23:59:00,62.1,54.4,29.80,WNW,297,0.0,4.0,76,0.00,,,1.07,WeatherCatV1.02B3,2013-06-15 03:59:00,